KIBM

Kimball Municipal / Robert E Arraj Field Airport

Kimball, Nebraska, USA
METAR KIBM 140715Z AUTO 25008KT 10SM CLR M04/M12 A3023 RMK AO2 T10441116
Observed Flight Rules
Dec-14 @ 07:15 UTC (25 minutes ago) Visual Flight Rules
Wind Visibility Clouds
250° at 8 knots 10 miles
  • Clear skies
Temperatures Readings
Current -4°C / 25°F
Dewpoint -12°C / 10°F
Humidity 54%
Altimeter 30.23" Hg
Pressure 1024 hPa
Elevation 1501
METAR KIBM 140715Z AUTO 25008KT 10SM CLR M04/M12 A3023 RMK AO2 T10441116
Observed Flight Rules
Dec-14 @ 07:15 UTC
(25 minutes ago)
VFR
Wind Visibility
250° at 8 knots 10 miles
Clouds
  • Clear skies
Temperature Dewpoint
-4°C / 25°F -12°C / 10°F
Humidity Altimeter Pressure
54% 30.23" Hg 1024 hPa